sensor_id;sensor_type;location;lat;lon;timestamp;P1;durP1;ratioP1;P2;durP2;ratioP2
11328;SDS011;5719;42.714;23.732;2022-07-23T00:00:14;6.78;;;4.65;;
11328;SDS011;5719;42.714;23.732;2022-07-23T00:02:42;6.50;;;4.85;;
11328;SDS011;5719;42.714;23.732;2022-07-23T00:05:09;5.50;;;4.47;;
11328;SDS011;5719;42.714;23.732;2022-07-23T00:07:36;10.77;;;4.70;;
11328;SDS011;5719;42.714;23.732;2022-07-23T00:10:05;8.52;;;4.72;;
11328;SDS011;5719;42.714;23.732;2022-07-23T00:12:33;5.38;;;4.82;;
11328;SDS011;5719;42.714;23.732;2022-07-23T00:15:00;8.15;;;4.78;;
11328;SDS011;5719;42.714;23.732;2022-07-23T00:17:30;7.53;;;4.43;;
11328;SDS011;5719;42.714;23.732;2022-07-23T00:19:57;7.18;;;4.80;;
11328;SDS011;5719;42.714;23.732;2022-07-23T00:22:24;9.13;;;4.57;;
11328;SDS011;5719;42.714;23.732;2022-07-23T00:24:52;7.18;;;4.72;;
11328;SDS011;5719;42.714;23.732;2022-07-23T00:27:21;7.97;;;4.70;;
11328;SDS011;5719;42.714;23.732;2022-07-23T00:29:47;5.50;;;4.40;;
11328;SDS011;5719;42.714;23.732;2022-07-23T00:32:14;5.43;;;4.68;;
11328;SDS011;5719;42.714;23.732;2022-07-23T00:34:41;4.95;;;4.45;;
11328;SDS011;5719;42.714;23.732;2022-07-23T00:37:08;7.72;;;4.70;;
11328;SDS011;5719;42.714;23.732;2022-07-23T00:39:35;7.28;;;4.75;;
11328;SDS011;5719;42.714;23.732;2022-07-23T00:42:02;6.75;;;4.68;;
11328;SDS011;5719;42.714;23.732;2022-07-23T00:44:31;7.18;;;5.20;;
11328;SDS011;5719;42.714;23.732;2022-07-23T00:46:58;9.80;;;5.15;;
11328;SDS011;5719;42.714;23.732;2022-07-23T00:49:25;7.22;;;5.35;;
11328;SDS011;5719;42.714;23.732;2022-07-23T00:51:53;7.60;;;4.82;;
11328;SDS011;5719;42.714;23.732;2022-07-23T00:54:22;8.57;;;4.57;;
11328;SDS011;5719;42.714;23.732;2022-07-23T00:56:49;9.35;;;4.55;;
11328;SDS011;5719;42.714;23.732;2022-07-23T00:59:16;6.75;;;4.80;;
11328;SDS011;5719;42.714;23.732;2022-07-23T01:01:45;8.52;;;4.50;;
11328;SDS011;5719;42.714;23.732;2022-07-23T01:04:14;16.05;;;5.30;;
11328;SDS011;5719;42.714;23.732;2022-07-23T01:06:41;9.00;;;5.03;;
11328;SDS011;5719;42.714;23.732;2022-07-23T01:09:10;5.28;;;3.92;;
11328;SDS011;5719;42.714;23.732;2022-07-23T01:11:37;9.98;;;5.40;;
11328;SDS011;5719;42.714;23.732;2022-07-23T01:14:07;5.20;;;4.60;;
11328;SDS011;5719;42.714;23.732;2022-07-23T01:16:38;8.85;;;5.10;;
11328;SDS011;5719;42.714;23.732;2022-07-23T01:19:06;12.80;;;5.18;;
11328;SDS011;5719;42.714;23.732;2022-07-23T01:21:37;15.73;;;5.68;;
11328;SDS011;5719;42.714;23.732;2022-07-23T01:24:08;7.90;;;5.25;;
11328;SDS011;5719;42.714;23.732;2022-07-23T01:26:36;11.65;;;5.22;;
11328;SDS011;5719;42.714;23.732;2022-07-23T01:29:03;8.82;;;4.38;;
11328;SDS011;5719;42.714;23.732;2022-07-23T01:31:31;8.48;;;4.75;;
11328;SDS011;5719;42.714;23.732;2022-07-23T01:33:58;7.93;;;4.97;;
11328;SDS011;5719;42.714;23.732;2022-07-23T01:36:25;10.15;;;5.05;;
11328;SDS011;5719;42.714;23.732;2022-07-23T01:38:52;5.43;;;4.57;;
11328;SDS011;5719;42.714;23.732;2022-07-23T01:41:21;11.52;;;5.05;;
11328;SDS011;5719;42.714;23.732;2022-07-23T01:43:48;6.78;;;5.20;;
11328;SDS011;5719;42.714;23.732;2022-07-23T01:46:14;5.85;;;4.57;;
11328;SDS011;5719;42.714;23.732;2022-07-23T01:48:41;6.35;;;4.80;;
11328;SDS011;5719;42.714;23.732;2022-07-23T01:51:08;7.28;;;5.10;;
11328;SDS011;5719;42.714;23.732;2022-07-23T01:53:35;9.55;;;5.00;;
11328;SDS011;5719;42.714;23.732;2022-07-23T01:56:02;6.40;;;4.75;;
11328;SDS011;5719;42.714;23.732;2022-07-23T01:58:31;8.57;;;5.60;;
11328;SDS011;5719;42.714;23.732;2022-07-23T02:00:58;6.47;;;4.53;;
11328;SDS011;5719;42.714;23.732;2022-07-23T02:03:25;7.57;;;4.63;;
11328;SDS011;5719;42.714;23.732;2022-07-23T02:05:52;8.43;;;4.60;;
11328;SDS011;5719;42.714;23.732;2022-07-23T02:08:19;7.80;;;5.22;;
11328;SDS011;5719;42.714;23.732;2022-07-23T02:10:46;6.20;;;4.38;;
11328;SDS011;5719;42.714;23.732;2022-07-23T02:13:13;7.80;;;4.72;;
11328;SDS011;5719;42.714;23.732;2022-07-23T02:15:42;8.82;;;4.50;;
11328;SDS011;5719;42.714;23.732;2022-07-23T02:18:09;11.35;;;5.38;;
11328;SDS011;5719;42.714;23.732;2022-07-23T02:20:36;5.53;;;4.88;;
11328;SDS011;5719;42.714;23.732;2022-07-23T02:23:04;7.15;;;4.75;;
11328;SDS011;5719;42.714;23.732;2022-07-23T02:25:31;5.95;;;5.07;;
11328;SDS011;5719;42.714;23.732;2022-07-23T02:27:58;7.95;;;4.93;;
11328;SDS011;5719;42.714;23.732;2022-07-23T02:30:25;5.75;;;4.93;;
11328;SDS011;5719;42.714;23.732;2022-07-23T02:32:53;8.10;;;5.03;;
11328;SDS011;5719;42.714;23.732;2022-07-23T02:35:20;7.72;;;4.93;;
11328;SDS011;5719;42.714;23.732;2022-07-23T02:37:47;11.00;;;5.18;;
11328;SDS011;5719;42.714;23.732;2022-07-23T02:40:14;8.50;;;5.32;;
11328;SDS011;5719;42.714;23.732;2022-07-23T02:42:41;7.15;;;5.00;;
11328;SDS011;5719;42.714;23.732;2022-07-23T02:45:08;10.70;;;5.05;;
11328;SDS011;5719;42.714;23.732;2022-07-23T02:47:35;8.00;;;4.88;;
11328;SDS011;5719;42.714;23.732;2022-07-23T02:50:04;6.00;;;4.70;;
11328;SDS011;5719;42.714;23.732;2022-07-23T02:52:32;7.30;;;5.10;;
11328;SDS011;5719;42.714;23.732;2022-07-23T02:54:59;8.65;;;4.47;;
11328;SDS011;5719;42.714;23.732;2022-07-23T02:57:26;7.25;;;4.97;;
11328;SDS011;5719;42.714;23.732;2022-07-23T02:59:53;5.82;;;4.70;;
11328;SDS011;5719;42.714;23.732;2022-07-23T03:02:20;12.40;;;5.40;;
11328;SDS011;5719;42.714;23.732;2022-07-23T03:04:46;11.20;;;5.93;;
11328;SDS011;5719;42.714;23.732;2022-07-23T03:07:15;10.98;;;6.07;;
11328;SDS011;5719;42.714;23.732;2022-07-23T03:09:42;10.07;;;5.22;;
11328;SDS011;5719;42.714;23.732;2022-07-23T03:12:09;10.90;;;5.32;;
11328;SDS011;5719;42.714;23.732;2022-07-23T03:14:36;11.80;;;5.38;;
11328;SDS011;5719;42.714;23.732;2022-07-23T03:17:03;9.98;;;5.32;;
11328;SDS011;5719;42.714;23.732;2022-07-23T03:19:30;11.88;;;5.32;;
11328;SDS011;5719;42.714;23.732;2022-07-23T03:21:57;6.57;;;5.28;;
11328;SDS011;5719;42.714;23.732;2022-07-23T03:24:25;5.85;;;5.00;;
11328;SDS011;5719;42.714;23.732;2022-07-23T03:27:13;8.13;;;5.70;;
11328;SDS011;5719;42.714;23.732;2022-07-23T03:29:40;10.35;;;5.47;;
11328;SDS011;5719;42.714;23.732;2022-07-23T03:32:07;13.32;;;5.18;;
11328;SDS011;5719;42.714;23.732;2022-07-23T03:34:34;7.82;;;4.95;;
11328;SDS011;5719;42.714;23.732;2022-07-23T03:37:02;11.00;;;5.40;;
11328;SDS011;5719;42.714;23.732;2022-07-23T03:39:30;7.47;;;5.00;;
11328;SDS011;5719;42.714;23.732;2022-07-23T03:41:57;7.53;;;5.45;;
11328;SDS011;5719;42.714;23.732;2022-07-23T03:44:24;9.93;;;5.00;;
11328;SDS011;5719;42.714;23.732;2022-07-23T03:46:51;9.60;;;5.43;;
11328;SDS011;5719;42.714;23.732;2022-07-23T03:49:18;7.47;;;4.78;;
11328;SDS011;5719;42.714;23.732;2022-07-23T03:51:44;14.05;;;6.65;;
11328;SDS011;5719;42.714;23.732;2022-07-23T03:54:11;8.57;;;5.20;;
11328;SDS011;5719;42.714;23.732;2022-07-23T03:56:42;8.00;;;5.07;;
11328;SDS011;5719;42.714;23.732;2022-07-23T03:59:09;14.50;;;5.53;;
11328;SDS011;5719;42.714;23.732;2022-07-23T04:01:36;9.73;;;5.93;;
11328;SDS011;5719;42.714;23.732;2022-07-23T04:04:03;8.68;;;5.65;;
11328;SDS011;5719;42.714;23.732;2022-07-23T04:06:30;12.32;;;5.15;;
11328;SDS011;5719;42.714;23.732;2022-07-23T04:08:57;6.80;;;5.60;;
11328;SDS011;5719;42.714;23.732;2022-07-23T04:11:24;13.38;;;5.30;;
11328;SDS011;5719;42.714;23.732;2022-07-23T04:13:53;6.40;;;5.20;;
11328;SDS011;5719;42.714;23.732;2022-07-23T04:16:20;6.45;;;5.13;;
11328;SDS011;5719;42.714;23.732;2022-07-23T04:18:46;7.28;;;5.60;;
11328;SDS011;5719;42.714;23.732;2022-07-23T04:21:13;5.68;;;5.05;;
11328;SDS011;5719;42.714;23.732;2022-07-23T04:23:40;10.05;;;5.72;;
11328;SDS011;5719;42.714;23.732;2022-07-23T04:26:07;7.40;;;5.25;;
11328;SDS011;5719;42.714;23.732;2022-07-23T04:28:34;10.35;;;5.38;;
11328;SDS011;5719;42.714;23.732;2022-07-23T04:31:03;6.50;;;5.70;;
11328;SDS011;5719;42.714;23.732;2022-07-23T04:33:30;9.75;;;4.97;;
11328;SDS011;5719;42.714;23.732;2022-07-23T04:35:57;8.48;;;5.38;;
11328;SDS011;5719;42.714;23.732;2022-07-23T04:38:24;6.90;;;5.13;;
11328;SDS011;5719;42.714;23.732;2022-07-23T04:40:51;9.68;;;6.45;;
11328;SDS011;5719;42.714;23.732;2022-07-23T04:43:18;15.13;;;5.68;;
11328;SDS011;5719;42.714;23.732;2022-07-23T04:45:45;9.07;;;5.75;;
11328;SDS011;5719;42.714;23.732;2022-07-23T04:48:14;6.28;;;4.93;;
11328;SDS011;5719;42.714;23.732;2022-07-23T04:50:41;9.40;;;5.75;;
11328;SDS011;5719;42.714;23.732;2022-07-23T04:53:08;8.82;;;5.95;;
11328;SDS011;5719;42.714;23.732;2022-07-23T04:55:35;12.60;;;5.95;;
11328;SDS011;5719;42.714;23.732;2022-07-23T04:58:02;6.38;;;5.60;;
11328;SDS011;5719;42.714;23.732;2022-07-23T05:00:29;7.85;;;5.68;;
11328;SDS011;5719;42.714;23.732;2022-07-23T05:02:56;6.43;;;5.20;;
11328;SDS011;5719;42.714;23.732;2022-07-23T05:05:24;11.63;;;5.65;;
11328;SDS011;5719;42.714;23.732;2022-07-23T05:07:51;7.28;;;5.28;;
11328;SDS011;5719;42.714;23.732;2022-07-23T05:10:18;9.32;;;5.43;;
11328;SDS011;5719;42.714;23.732;2022-07-23T05:12:45;9.93;;;5.13;;
11328;SDS011;5719;42.714;23.732;2022-07-23T05:15:12;9.98;;;4.90;;
11328;SDS011;5719;42.714;23.732;2022-07-23T05:17:39;10.70;;;5.53;;
11328;SDS011;5719;42.714;23.732;2022-07-23T05:20:06;14.45;;;5.60;;
11328;SDS011;5719;42.714;23.732;2022-07-23T05:22:35;7.53;;;5.63;;
11328;SDS011;5719;42.714;23.732;2022-07-23T05:25:02;7.65;;;5.47;;
11328;SDS011;5719;42.714;23.732;2022-07-23T05:27:30;8.27;;;5.82;;
11328;SDS011;5719;42.714;23.732;2022-07-23T05:29:56;7.88;;;5.70;;
11328;SDS011;5719;42.714;23.732;2022-07-23T05:32:23;9.43;;;5.32;;
11328;SDS011;5719;42.714;23.732;2022-07-23T05:34:52;13.93;;;5.35;;
11328;SDS011;5719;42.714;23.732;2022-07-23T05:37:19;10.55;;;5.60;;
11328;SDS011;5719;42.714;23.732;2022-07-23T05:39:47;12.70;;;5.15;;
11328;SDS011;5719;42.714;23.732;2022-07-23T05:42:14;5.35;;;4.82;;
11328;SDS011;5719;42.714;23.732;2022-07-23T05:44:41;9.05;;;5.10;;
11328;SDS011;5719;42.714;23.732;2022-07-23T05:47:07;9.05;;;5.28;;
11328;SDS011;5719;42.714;23.732;2022-07-23T05:49:36;8.90;;;5.00;;
11328;SDS011;5719;42.714;23.732;2022-07-23T05:52:03;10.43;;;5.13;;
11328;SDS011;5719;42.714;23.732;2022-07-23T05:54:31;7.00;;;4.68;;
11328;SDS011;5719;42.714;23.732;2022-07-23T05:57:02;8.18;;;4.57;;
11328;SDS011;5719;42.714;23.732;2022-07-23T05:59:29;8.40;;;4.97;;
11328;SDS011;5719;42.714;23.732;2022-07-23T06:01:56;7.65;;;4.80;;
11328;SDS011;5719;42.714;23.732;2022-07-23T06:04:23;6.85;;;4.57;;
11328;SDS011;5719;42.714;23.732;2022-07-23T06:06:50;7.72;;;4.57;;
11328;SDS011;5719;42.714;23.732;2022-07-23T06:09:17;11.80;;;5.10;;
11328;SDS011;5719;42.714;23.732;2022-07-23T06:11:44;9.40;;;4.57;;
11328;SDS011;5719;42.714;23.732;2022-07-23T06:14:12;10.40;;;4.88;;
11328;SDS011;5719;42.714;23.732;2022-07-23T06:16:39;19.55;;;5.47;;
11328;SDS011;5719;42.714;23.732;2022-07-23T06:19:06;8.93;;;4.90;;
11328;SDS011;5719;42.714;23.732;2022-07-23T06:21:33;11.77;;;5.28;;
11328;SDS011;5719;42.714;23.732;2022-07-23T06:23:59;10.02;;;5.43;;
11328;SDS011;5719;42.714;23.732;2022-07-23T06:26:26;9.45;;;4.80;;
11328;SDS011;5719;42.714;23.732;2022-07-23T06:28:53;6.32;;;4.50;;
11328;SDS011;5719;42.714;23.732;2022-07-23T06:31:22;13.40;;;5.55;;
11328;SDS011;5719;42.714;23.732;2022-07-23T06:33:48;6.28;;;4.53;;
11328;SDS011;5719;42.714;23.732;2022-07-23T06:36:16;9.93;;;5.20;;
11328;SDS011;5719;42.714;23.732;2022-07-23T06:38:43;8.48;;;4.82;;
11328;SDS011;5719;42.714;23.732;2022-07-23T06:41:10;6.78;;;4.80;;
11328;SDS011;5719;42.714;23.732;2022-07-23T06:43:36;8.50;;;4.72;;
11328;SDS011;5719;42.714;23.732;2022-07-23T06:46:04;9.55;;;4.75;;
11328;SDS011;5719;42.714;23.732;2022-07-23T06:48:32;8.73;;;4.82;;
11328;SDS011;5719;42.714;23.732;2022-07-23T06:51:00;10.98;;;4.40;;
11328;SDS011;5719;42.714;23.732;2022-07-23T06:53:28;8.65;;;4.30;;
11328;SDS011;5719;42.714;23.732;2022-07-23T06:55:55;14.00;;;4.40;;
11328;SDS011;5719;42.714;23.732;2022-07-23T06:58:22;16.75;;;5.30;;
11328;SDS011;5719;42.714;23.732;2022-07-23T07:00:49;8.35;;;4.32;;
11328;SDS011;5719;42.714;23.732;2022-07-23T07:03:17;8.27;;;4.50;;
11328;SDS011;5719;42.714;23.732;2022-07-23T07:05:46;8.25;;;4.60;;
11328;SDS011;5719;42.714;23.732;2022-07-23T07:08:14;11.77;;;4.40;;
11328;SDS011;5719;42.714;23.732;2022-07-23T07:10:42;12.93;;;4.75;;
11328;SDS011;5719;42.714;23.732;2022-07-23T07:13:09;7.47;;;4.35;;
11328;SDS011;5719;42.714;23.732;2022-07-23T07:15:36;9.00;;;4.65;;
11328;SDS011;5719;42.714;23.732;2022-07-23T07:18:04;8.10;;;4.50;;
11328;SDS011;5719;42.714;23.732;2022-07-23T07:20:31;10.80;;;4.82;;
11328;SDS011;5719;42.714;23.732;2022-07-23T07:23:02;6.50;;;4.60;;
11328;SDS011;5719;42.714;23.732;2022-07-23T07:25:29;10.98;;;4.68;;
11328;SDS011;5719;42.714;23.732;2022-07-23T07:27:55;6.22;;;4.55;;
11328;SDS011;5719;42.714;23.732;2022-07-23T07:30:23;7.90;;;5.40;;
11328;SDS011;5719;42.714;23.732;2022-07-23T07:32:49;12.45;;;4.57;;
11328;SDS011;5719;42.714;23.732;2022-07-23T07:35:16;9.18;;;4.90;;
11328;SDS011;5719;42.714;23.732;2022-07-23T07:37:43;9.55;;;4.70;;
11328;SDS011;5719;42.714;23.732;2022-07-23T07:40:12;15.70;;;6.32;;
11328;SDS011;5719;42.714;23.732;2022-07-23T07:42:45;9.98;;;4.80;;
11328;SDS011;5719;42.714;23.732;2022-07-23T07:47:39;12.98;;;4.70;;
11328;SDS011;5719;42.714;23.732;2022-07-23T07:50:06;12.07;;;5.00;;
11328;SDS011;5719;42.714;23.732;2022-07-23T07:52:34;9.15;;;4.70;;
11328;SDS011;5719;42.714;23.732;2022-07-23T07:55:03;9.98;;;5.40;;
11328;SDS011;5719;42.714;23.732;2022-07-23T07:57:32;6.82;;;4.80;;
11328;SDS011;5719;42.714;23.732;2022-07-23T07:59:59;8.98;;;4.60;;
11328;SDS011;5719;42.714;23.732;2022-07-23T08:02:26;9.60;;;4.70;;
11328;SDS011;5719;42.714;23.732;2022-07-23T08:04:54;11.13;;;4.82;;
11328;SDS011;5719;42.714;23.732;2022-07-23T08:07:22;8.15;;;4.60;;
11328;SDS011;5719;42.714;23.732;2022-07-23T08:09:49;11.48;;;4.55;;
11328;SDS011;5719;42.714;23.732;2022-07-23T08:12:16;14.43;;;5.10;;
11328;SDS011;5719;42.714;23.732;2022-07-23T08:14:44;9.02;;;4.40;;
11328;SDS011;5719;42.714;23.732;2022-07-23T08:17:11;12.32;;;4.80;;
11328;SDS011;5719;42.714;23.732;2022-07-23T08:19:38;8.70;;;4.60;;
11328;SDS011;5719;42.714;23.732;2022-07-23T08:22:05;12.75;;;4.25;;
11328;SDS011;5719;42.714;23.732;2022-07-23T08:24:32;10.05;;;4.78;;
11328;SDS011;5719;42.714;23.732;2022-07-23T08:26:59;9.27;;;4.50;;
11328;SDS011;5719;42.714;23.732;2022-07-23T08:29:26;12.55;;;4.40;;
11328;SDS011;5719;42.714;23.732;2022-07-23T08:31:54;7.38;;;4.50;;
11328;SDS011;5719;42.714;23.732;2022-07-23T08:34:21;8.07;;;4.47;;
11328;SDS011;5719;42.714;23.732;2022-07-23T08:36:49;10.38;;;4.55;;
11328;SDS011;5719;42.714;23.732;2022-07-23T08:39:16;7.40;;;4.80;;
11328;SDS011;5719;42.714;23.732;2022-07-23T08:41:43;10.38;;;4.50;;
11328;SDS011;5719;42.714;23.732;2022-07-23T08:44:10;8.70;;;4.22;;
11328;SDS011;5719;42.714;23.732;2022-07-23T08:46:37;6.78;;;4.30;;
11328;SDS011;5719;42.714;23.732;2022-07-23T08:49:07;9.50;;;4.80;;
11328;SDS011;5719;42.714;23.732;2022-07-23T08:51:34;12.80;;;4.53;;
11328;SDS011;5719;42.714;23.732;2022-07-23T08:54:01;14.38;;;4.32;;
11328;SDS011;5719;42.714;23.732;2022-07-23T08:56:29;8.02;;;4.53;;
11328;SDS011;5719;42.714;23.732;2022-07-23T08:58:56;9.82;;;4.50;;
11328;SDS011;5719;42.714;23.732;2022-07-23T09:01:24;9.18;;;4.40;;
11328;SDS011;5719;42.714;23.732;2022-07-23T09:03:51;11.50;;;4.57;;
11328;SDS011;5719;42.714;23.732;2022-07-23T09:06:21;15.27;;;4.80;;
11328;SDS011;5719;42.714;23.732;2022-07-23T09:08:48;17.30;;;5.13;;
11328;SDS011;5719;42.714;23.732;2022-07-23T09:11:16;11.60;;;4.70;;
11328;SDS011;5719;42.714;23.732;2022-07-23T09:13:45;7.80;;;4.43;;
11328;SDS011;5719;42.714;23.732;2022-07-23T09:16:14;10.77;;;4.97;;
11328;SDS011;5719;42.714;23.732;2022-07-23T09:18:43;9.10;;;4.78;;
11328;SDS011;5719;42.714;23.732;2022-07-23T09:21:12;9.85;;;4.60;;
11328;SDS011;5719;42.714;23.732;2022-07-23T09:23:43;15.95;;;5.38;;
11328;SDS011;5719;42.714;23.732;2022-07-23T09:29:07;10.35;;;4.60;;
11328;SDS011;5719;42.714;23.732;2022-07-23T09:31:49;8.77;;;4.50;;
11328;SDS011;5719;42.714;23.732;2022-07-23T09:34:18;15.20;;;5.10;;
11328;SDS011;5719;42.714;23.732;2022-07-23T09:36:47;7.85;;;4.53;;
11328;SDS011;5719;42.714;23.732;2022-07-23T09:39:23;10.80;;;4.15;;
11328;SDS011;5719;42.714;23.732;2022-07-23T09:41:53;12.25;;;5.07;;
11328;SDS011;5719;42.714;23.732;2022-07-23T09:44:20;12.23;;;4.30;;
11328;SDS011;5719;42.714;23.732;2022-07-23T09:46:48;10.98;;;4.43;;
11328;SDS011;5719;42.714;23.732;2022-07-23T09:49:18;15.38;;;4.57;;
11328;SDS011;5719;42.714;23.732;2022-07-23T09:55:09;9.63;;;4.40;;
11328;SDS011;5719;42.714;23.732;2022-07-23T09:57:37;15.90;;;4.22;;
11328;SDS011;5719;42.714;23.732;2022-07-23T10:00:07;14.32;;;4.22;;
11328;SDS011;5719;42.714;23.732;2022-07-23T10:02:36;12.77;;;3.97;;
11328;SDS011;5719;42.714;23.732;2022-07-23T10:05:04;12.05;;;4.38;;
11328;SDS011;5719;42.714;23.732;2022-07-23T10:07:33;8.75;;;3.55;;
11328;SDS011;5719;42.714;23.732;2022-07-23T10:10:03;8.18;;;3.85;;
11328;SDS011;5719;42.714;23.732;2022-07-23T10:12:32;9.60;;;3.95;;
11328;SDS011;5719;42.714;23.732;2022-07-23T10:15:11;7.03;;;4.15;;
11328;SDS011;5719;42.714;23.732;2022-07-23T10:17:39;10.60;;;4.38;;
11328;SDS011;5719;42.714;23.732;2022-07-23T10:20:06;12.45;;;4.03;;
11328;SDS011;5719;42.714;23.732;2022-07-23T10:26:10;12.13;;;3.65;;
11328;SDS011;5719;42.714;23.732;2022-07-23T10:28:56;12.15;;;3.78;;
11328;SDS011;5719;42.714;23.732;2022-07-23T10:38:18;7.60;;;3.80;;
11328;SDS011;5719;42.714;23.732;2022-07-23T10:40:54;7.50;;;3.67;;
11328;SDS011;5719;42.714;23.732;2022-07-23T10:43:23;8.03;;;3.97;;
11328;SDS011;5719;42.714;23.732;2022-07-23T10:52:24;15.95;;;4.03;;
11328;SDS011;5719;42.714;23.732;2022-07-23T11:52:44;14.77;;;3.80;;
11328;SDS011;5719;42.714;23.732;2022-07-23T11:55:12;12.98;;;4.28;;
11328;SDS011;5719;42.714;23.732;2022-07-23T11:57:42;9.57;;;3.90;;
11328;SDS011;5719;42.714;23.732;2022-07-23T12:00:10;15.52;;;3.97;;
11328;SDS011;5719;42.714;23.732;2022-07-23T12:02:40;12.13;;;4.65;;
11328;SDS011;5719;42.714;23.732;2022-07-23T12:05:11;15.40;;;4.20;;
11328;SDS011;5719;42.714;23.732;2022-07-23T12:07:39;12.82;;;4.32;;
11328;SDS011;5719;42.714;23.732;2022-07-23T12:10:12;7.68;;;3.72;;
11328;SDS011;5719;42.714;23.732;2022-07-23T12:12:41;12.30;;;3.78;;
11328;SDS011;5719;42.714;23.732;2022-07-23T12:18:30;11.75;;;4.30;;
11328;SDS011;5719;42.714;23.732;2022-07-23T12:21:02;9.32;;;3.80;;
11328;SDS011;5719;42.714;23.732;2022-07-23T12:26:02;14.13;;;4.00;;
11328;SDS011;5719;42.714;23.732;2022-07-23T12:28:29;9.77;;;4.20;;
11328;SDS011;5719;42.714;23.732;2022-07-23T12:30:58;16.52;;;4.32;;
11328;SDS011;5719;42.714;23.732;2022-07-23T12:33:26;10.43;;;4.18;;
11328;SDS011;5719;42.714;23.732;2022-07-23T12:35:55;16.95;;;4.53;;
11328;SDS011;5719;42.714;23.732;2022-07-23T12:38:24;14.60;;;4.20;;
11328;SDS011;5719;42.714;23.732;2022-07-23T12:40:52;11.10;;;4.25;;
11328;SDS011;5719;42.714;23.732;2022-07-23T12:43:22;9.82;;;4.32;;
11328;SDS011;5719;42.714;23.732;2022-07-23T12:45:51;13.52;;;4.40;;
11328;SDS011;5719;42.714;23.732;2022-07-23T12:48:23;10.88;;;4.30;;
11328;SDS011;5719;42.714;23.732;2022-07-23T12:50:52;13.43;;;4.13;;
11328;SDS011;5719;42.714;23.732;2022-07-23T12:53:21;13.52;;;4.22;;
11328;SDS011;5719;42.714;23.732;2022-07-23T12:55:49;9.15;;;3.92;;
11328;SDS011;5719;42.714;23.732;2022-07-23T12:58:18;13.35;;;4.50;;
11328;SDS011;5719;42.714;23.732;2022-07-23T13:00:54;17.85;;;4.15;;
11328;SDS011;5719;42.714;23.732;2022-07-23T13:06:49;11.57;;;4.22;;
11328;SDS011;5719;42.714;23.732;2022-07-23T13:09:18;13.00;;;4.13;;
11328;SDS011;5719;42.714;23.732;2022-07-23T13:11:47;10.90;;;4.18;;
11328;SDS011;5719;42.714;23.732;2022-07-23T13:14:15;21.38;;;4.35;;
11328;SDS011;5719;42.714;23.732;2022-07-23T13:16:45;22.95;;;4.43;;
11328;SDS011;5719;42.714;23.732;2022-07-23T13:19:12;18.60;;;4.60;;
11328;SDS011;5719;42.714;23.732;2022-07-23T13:21:40;20.17;;;4.72;;
11328;SDS011;5719;42.714;23.732;2022-07-23T13:24:08;13.68;;;4.57;;
11328;SDS011;5719;42.714;23.732;2022-07-23T13:26:36;13.65;;;4.13;;
11328;SDS011;5719;42.714;23.732;2022-07-23T13:29:03;21.15;;;4.82;;
11328;SDS011;5719;42.714;23.732;2022-07-23T13:31:31;14.93;;;4.80;;
11328;SDS011;5719;42.714;23.732;2022-07-23T13:34:00;15.02;;;4.80;;
11328;SDS011;5719;42.714;23.732;2022-07-23T13:36:27;14.55;;;4.78;;
11328;SDS011;5719;42.714;23.732;2022-07-23T13:38:54;16.60;;;4.70;;
11328;SDS011;5719;42.714;23.732;2022-07-23T13:41:21;16.38;;;4.50;;
11328;SDS011;5719;42.714;23.732;2022-07-23T13:43:48;15.27;;;4.25;;
11328;SDS011;5719;42.714;23.732;2022-07-23T13:46:16;12.68;;;4.20;;
11328;SDS011;5719;42.714;23.732;2022-07-23T13:48:43;19.48;;;4.70;;
11328;SDS011;5719;42.714;23.732;2022-07-23T13:51:11;10.02;;;4.53;;
11328;SDS011;5719;42.714;23.732;2022-07-23T13:53:38;16.67;;;4.50;;
11328;SDS011;5719;42.714;23.732;2022-07-23T13:56:05;18.13;;;4.68;;
11328;SDS011;5719;42.714;23.732;2022-07-23T13:58:32;16.80;;;4.35;;
11328;SDS011;5719;42.714;23.732;2022-07-23T14:01:01;19.42;;;4.07;;
11328;SDS011;5719;42.714;23.732;2022-07-23T14:03:28;13.05;;;4.60;;
11328;SDS011;5719;42.714;23.732;2022-07-23T14:05:55;16.05;;;4.15;;
11328;SDS011;5719;42.714;23.732;2022-07-23T14:08:23;18.63;;;4.50;;
11328;SDS011;5719;42.714;23.732;2022-07-23T14:10:51;10.25;;;4.38;;
11328;SDS011;5719;42.714;23.732;2022-07-23T14:13:18;16.23;;;4.45;;
11328;SDS011;5719;42.714;23.732;2022-07-23T14:15:46;19.08;;;4.85;;
11328;SDS011;5719;42.714;23.732;2022-07-23T14:18:15;13.40;;;4.40;;
11328;SDS011;5719;42.714;23.732;2022-07-23T14:20:42;16.60;;;4.68;;
11328;SDS011;5719;42.714;23.732;2022-07-23T14:23:11;11.25;;;4.15;;
11328;SDS011;5719;42.714;23.732;2022-07-23T14:25:39;16.15;;;4.38;;
11328;SDS011;5719;42.714;23.732;2022-07-23T14:28:06;12.88;;;4.30;;
11328;SDS011;5719;42.714;23.732;2022-07-23T14:30:33;22.95;;;4.50;;
11328;SDS011;5719;42.714;23.732;2022-07-23T14:33:00;9.18;;;3.92;;
11328;SDS011;5719;42.714;23.732;2022-07-23T14:35:27;10.60;;;4.30;;
11328;SDS011;5719;42.714;23.732;2022-07-23T14:37:54;13.40;;;4.38;;
11328;SDS011;5719;42.714;23.732;2022-07-23T14:40:23;15.73;;;4.78;;
11328;SDS011;5719;42.714;23.732;2022-07-23T15:54:47;13.18;;;4.07;;
11328;SDS011;5719;42.714;23.732;2022-07-23T15:57:15;9.52;;;3.58;;
11328;SDS011;5719;42.714;23.732;2022-07-23T15:59:42;9.63;;;3.78;;
11328;SDS011;5719;42.714;23.732;2022-07-23T16:02:09;14.52;;;4.43;;
11328;SDS011;5719;42.714;23.732;2022-07-23T16:10:53;12.05;;;4.13;;
11328;SDS011;5719;42.714;23.732;2022-07-23T16:13:22;15.18;;;4.10;;
11328;SDS011;5719;42.714;23.732;2022-07-23T16:15:49;12.32;;;4.00;;
11328;SDS011;5719;42.714;23.732;2022-07-23T16:18:16;10.93;;;3.78;;
11328;SDS011;5719;42.714;23.732;2022-07-23T16:20:43;18.25;;;3.88;;
11328;SDS011;5719;42.714;23.732;2022-07-23T16:23:10;12.57;;;3.83;;
11328;SDS011;5719;42.714;23.732;2022-07-23T16:25:37;13.65;;;4.45;;
11328;SDS011;5719;42.714;23.732;2022-07-23T16:28:06;10.70;;;3.78;;
11328;SDS011;5719;42.714;23.732;2022-07-23T16:30:39;14.45;;;3.90;;
11328;SDS011;5719;42.714;23.732;2022-07-23T16:39:22;8.57;;;3.50;;
11328;SDS011;5719;42.714;23.732;2022-07-23T16:41:50;12.95;;;4.28;;
11328;SDS011;5719;42.714;23.732;2022-07-23T16:44:18;10.35;;;4.18;;
11328;SDS011;5719;42.714;23.732;2022-07-23T16:46:45;10.55;;;4.22;;
11328;SDS011;5719;42.714;23.732;2022-07-23T16:49:12;12.38;;;3.80;;
11328;SDS011;5719;42.714;23.732;2022-07-23T16:51:40;8.30;;;3.70;;
11328;SDS011;5719;42.714;23.732;2022-07-23T16:54:07;9.55;;;3.80;;
11328;SDS011;5719;42.714;23.732;2022-07-23T16:56:34;13.05;;;3.65;;
11328;SDS011;5719;42.714;23.732;2022-07-23T16:59:01;15.57;;;4.18;;
11328;SDS011;5719;42.714;23.732;2022-07-23T17:01:30;11.10;;;3.65;;
11328;SDS011;5719;42.714;23.732;2022-07-23T17:03:57;11.27;;;3.78;;
11328;SDS011;5719;42.714;23.732;2022-07-23T17:06:24;11.85;;;4.20;;
11328;SDS011;5719;42.714;23.732;2022-07-23T17:08:51;10.25;;;4.03;;
11328;SDS011;5719;42.714;23.732;2022-07-23T17:11:18;13.88;;;4.20;;
11328;SDS011;5719;42.714;23.732;2022-07-23T17:13:45;13.57;;;3.80;;
11328;SDS011;5719;42.714;23.732;2022-07-23T17:16:12;8.90;;;3.83;;
11328;SDS011;5719;42.714;23.732;2022-07-23T17:18:40;9.95;;;4.30;;
11328;SDS011;5719;42.714;23.732;2022-07-23T17:21:07;15.38;;;4.60;;
11328;SDS011;5719;42.714;23.732;2022-07-23T17:23:34;11.10;;;4.07;;
11328;SDS011;5719;42.714;23.732;2022-07-23T17:26:01;11.52;;;4.32;;
11328;SDS011;5719;42.714;23.732;2022-07-23T17:28:28;10.90;;;3.85;;
11328;SDS011;5719;42.714;23.732;2022-07-23T17:30:55;13.50;;;4.50;;
11328;SDS011;5719;42.714;23.732;2022-07-23T17:33:22;16.83;;;4.78;;
11328;SDS011;5719;42.714;23.732;2022-07-23T17:35:51;18.35;;;4.35;;
11328;SDS011;5719;42.714;23.732;2022-07-23T17:38:20;20.65;;;4.75;;
11328;SDS011;5719;42.714;23.732;2022-07-23T17:40:48;14.27;;;4.60;;